Cranford, New Jersey
Current Conditions -  °F | °C
As of 8:55 AM on Friday 24 Oct 2014 (Local Time) from KLDJ Reporting Station
Overcast Overcast  
Wind Chill: 57°   Ceiling: 2900
Heat Index: 57°   Visibility: 10mi
Dew Point: 47°   Wind: 12mph
Humidity: 68%   Direction: 340°NNW
Pressure: 29.85"   Gusts: NA
Location:  40.66°N, 74.3°W
Report Text: KLDJ 241255Z AUTO 34010KT 10SM OVC029 14/08 A2985 RMK AO2 T01390081
Loading
Personal Weather Stations






























Interactive Weather Map
Tropical Storm Tracking
New forecast layout! Learn more

10-Day Weather Forecast

Advertisements
Track Severe Weather on mobile